Mans de San German, Puerto Rico
Current Conditions -  °F | °C
As of 11:50 AM on Friday 28 Nov 2014 (Local Time) from TJBQ Reporting Station
Clear Clear  
Wind Chill: 84°   Ceiling: Unl
Heat Index: 90°   Visibility: 10mi
Dew Point: 72°   Wind: 13mph
Humidity: 66%   Direction: 50°NE
Pressure: 29.96"   Gusts: NA
Location:  18.0846°N, 67.0463°W
Report Text: TJBQ 281550Z 05011KT 10SM SKC 29/22 A2996 RMK RWY 08- ATIS U
Loading
Personal Weather Stations






























Interactive Weather Map New forecast layout! Learn more

10-Day Weather Forecast

Advertisements
Track Severe Weather on mobile